EWG2YP EBBR-EDDH
Flight info
| Callsign | EWG2YP |
|---|---|
| Flight time | N/A |
| Altitude | 35000 |
| Route | NIK L191 VICOT N873 ANDIK M105 RIBSO |
| Aircraft | A20N/M-SDE2E3FGHIJ1RWXY/LB1 |
Departure
| Time | N/A |
|---|---|
| Airport | Brussels Airport (EBBR) |
Arrival
| Time | 2026-04-23 19:29 |
|---|---|
| Airport | Hamburg Helmut Schmidt Airport (EDDH) |
| Time | Latitude | Longitude | Altitude | Speed | Heading |
|---|---|---|---|---|---|
| 2026-04-23 18:50 | 52.77677 | 5.44457 | 35351 ft | 446 kts | 72° |
| 2026-04-23 18:50 | 52.78733 | 5.49397 | 35357 ft | 446 kts | 73° |
| 2026-04-23 18:51 | 52.80803 | 5.59106 | 35360 ft | 446 kts | 72° |
| 2026-04-23 18:51 | 52.82879 | 5.68854 | 35361 ft | 446 kts | 73° |
| 2026-04-23 18:52 | 52.84934 | 5.78528 | 35360 ft | 446 kts | 73° |
| 2026-04-23 18:52 | 52.86977 | 5.88189 | 35360 ft | 446 kts | 73° |
| 2026-04-23 18:53 | 52.89034 | 5.97960 | 35359 ft | 452 kts | 72° |
| 2026-04-23 18:53 | 52.91108 | 6.07861 | 35353 ft | 457 kts | 72° |
| 2026-04-23 18:54 | 52.93190 | 6.17839 | 35349 ft | 456 kts | 72° |
| 2026-04-23 18:54 | 52.95264 | 6.27840 | 35343 ft | 456 kts | 72° |
| 2026-04-23 18:55 | 52.97002 | 6.36255 | 35341 ft | 456 kts | 72° |
| 2026-04-23 18:55 | 52.99391 | 6.47868 | 35344 ft | 456 kts | 71° |
| 2026-04-23 18:56 | 53.02100 | 6.57505 | 35343 ft | 458 kts | 64° |
| 2026-04-23 18:56 | 53.04751 | 6.66101 | 35341 ft | 458 kts | 65° |
| 2026-04-23 18:57 | 53.07626 | 6.75527 | 35341 ft | 457 kts | 65° |
| 2026-04-23 18:57 | 53.10409 | 6.84760 | 35338 ft | 458 kts | 65° |
| 2026-04-23 18:58 | 53.13279 | 6.94349 | 35335 ft | 458 kts | 65° |
| 2026-04-23 18:58 | 53.16059 | 7.03680 | 35331 ft | 458 kts | 65° |
| 2026-04-23 18:59 | 53.18886 | 7.13213 | 35326 ft | 457 kts | 65° |
| 2026-04-23 18:59 | 53.21701 | 7.22740 | 35328 ft | 457 kts | 65° |
| 2026-04-23 19:00 | 53.24527 | 7.32346 | 34927 ft | 457 kts | 65° |
| 2026-04-23 19:00 | 53.25916 | 7.37083 | 34594 ft | 453 kts | 65° |
| 2026-04-23 19:00 | 53.27307 | 7.41835 | 34390 ft | 453 kts | 65° |
| 2026-04-23 19:00 | 53.28699 | 7.46602 | 34231 ft | 453 kts | 64° |
| 2026-04-23 19:01 | 53.30080 | 7.51337 | 34097 ft | 454 kts | 65° |
| 2026-04-23 19:01 | 53.31449 | 7.56042 | 33982 ft | 454 kts | 64° |
| 2026-04-23 19:01 | 53.32841 | 7.60838 | 33880 ft | 453 kts | 64° |
| 2026-04-23 19:01 | 53.34140 | 7.65323 | 33766 ft | 452 kts | 65° |
| 2026-04-23 19:02 | 53.35529 | 7.70128 | 33360 ft | 448 kts | 65° |
| 2026-04-23 19:02 | 53.36863 | 7.74750 | 32556 ft | 449 kts | 65° |
| 2026-04-23 19:02 | 53.38223 | 7.79470 | 31559 ft | 454 kts | 65° |
| 2026-04-23 19:02 | 53.39542 | 7.84056 | 30596 ft | 458 kts | 65° |
| 2026-04-23 19:03 | 53.40946 | 7.88950 | 29580 ft | 461 kts | 64° |
| 2026-04-23 19:03 | 53.42330 | 7.93786 | 28569 ft | 463 kts | 64° |
| 2026-04-23 19:03 | 53.43702 | 7.98589 | 27514 ft | 466 kts | 64° |
| 2026-04-23 19:03 | 53.45095 | 8.03478 | 26517 ft | 468 kts | 64° |
| 2026-04-23 19:04 | 53.46489 | 8.08378 | 26148 ft | 472 kts | 64° |
| 2026-04-23 19:04 | 53.47926 | 8.13435 | 25764 ft | 474 kts | 64° |
| 2026-04-23 19:04 | 53.49327 | 8.18376 | 25352 ft | 460 kts | 64° |
| 2026-04-23 19:04 | 53.50684 | 8.23179 | 24827 ft | 435 kts | 64° |
| 2026-04-23 19:05 | 53.51960 | 8.27704 | 24308 ft | 424 kts | 63° |
| 2026-04-23 19:05 | 53.53196 | 8.32095 | 23775 ft | 420 kts | 63° |
| 2026-04-23 19:05 | 53.54438 | 8.36510 | 23251 ft | 416 kts | 63° |
| 2026-04-23 19:05 | 53.55624 | 8.40734 | 22758 ft | 413 kts | 63° |
| 2026-04-23 19:06 | 53.56831 | 8.45040 | 22253 ft | 410 kts | 63° |
| 2026-04-23 19:06 | 53.58034 | 8.49339 | 21755 ft | 407 kts | 63° |
| 2026-04-23 19:06 | 53.59240 | 8.53661 | 21249 ft | 403 kts | 63° |
| 2026-04-23 19:06 | 53.60430 | 8.57931 | 20746 ft | 400 kts | 63° |
| 2026-04-23 19:07 | 53.61615 | 8.62196 | 20239 ft | 397 kts | 63° |
| 2026-04-23 19:07 | 53.62730 | 8.66212 | 19759 ft | 394 kts | 63° |
| 2026-04-23 19:07 | 53.63881 | 8.70364 | 19264 ft | 385 kts | 63° |
| 2026-04-23 19:07 | 53.64988 | 8.74369 | 18783 ft | 368 kts | 63° |
| 2026-04-23 19:08 | 53.66042 | 8.78192 | 18311 ft | 363 kts | 63° |
| 2026-04-23 19:08 | 53.67101 | 8.82032 | 17849 ft | 359 kts | 63° |
| 2026-04-23 19:08 | 53.68018 | 8.85365 | 17472 ft | 354 kts | 63° |
| 2026-04-23 19:08 | 53.69106 | 8.89328 | 16894 ft | 341 kts | 63° |
| 2026-04-23 19:09 | 53.70078 | 8.92877 | 16580 ft | 322 kts | 62° |
| 2026-04-23 19:09 | 53.71005 | 8.96269 | 16088 ft | 314 kts | 62° |
| 2026-04-23 19:09 | 53.71921 | 8.99614 | 15600 ft | 313 kts | 62° |
| 2026-04-23 19:09 | 53.72822 | 9.02903 | 15140 ft | 313 kts | 62° |
| 2026-04-23 19:10 | 53.73666 | 9.05996 | 14901 ft | 306 kts | 62° |
| 2026-04-23 19:10 | 53.74567 | 9.09300 | 14551 ft | 304 kts | 62° |
| 2026-04-23 19:10 | 53.75445 | 9.12528 | 14200 ft | 302 kts | 61° |
| 2026-04-23 19:10 | 53.76322 | 9.15751 | 13861 ft | 300 kts | 61° |
| 2026-04-23 19:11 | 53.77180 | 9.18916 | 13530 ft | 296 kts | 61° |
| 2026-04-23 19:11 | 53.78030 | 9.22061 | 13063 ft | 292 kts | 61° |
| 2026-04-23 19:11 | 53.78855 | 9.25119 | 12853 ft | 281 kts | 60° |
| 2026-04-23 19:11 | 53.79642 | 9.28042 | 12722 ft | 268 kts | 60° |
| 2026-04-23 19:12 | 53.80388 | 9.30869 | 12526 ft | 257 kts | 62° |
| 2026-04-23 19:12 | 53.81027 | 9.33715 | 12105 ft | 257 kts | 66° |
| 2026-04-23 19:12 | 53.81538 | 9.36580 | 11642 ft | 256 kts | 70° |
| 2026-04-23 19:12 | 53.81936 | 9.39516 | 11200 ft | 251 kts | 72° |
| 2026-04-23 19:13 | 53.82271 | 9.42302 | 10933 ft | 238 kts | 72° |
| 2026-04-23 19:13 | 53.82594 | 9.45002 | 10676 ft | 229 kts | 71° |
| 2026-04-23 19:13 | 53.82913 | 9.47625 | 10326 ft | 230 kts | 71° |
| 2026-04-23 19:13 | 53.83240 | 9.50299 | 9931 ft | 232 kts | 71° |
| 2026-04-23 19:14 | 53.83564 | 9.52960 | 9538 ft | 235 kts | 71° |
| 2026-04-23 19:14 | 53.83901 | 9.55729 | 9136 ft | 238 kts | 71° |
| 2026-04-23 19:14 | 53.84228 | 9.58451 | 8746 ft | 240 kts | 71° |
| 2026-04-23 19:14 | 53.84566 | 9.61256 | 8358 ft | 242 kts | 71° |
| 2026-04-23 19:15 | 53.84889 | 9.63976 | 8226 ft | 231 kts | 71° |
| 2026-04-23 19:15 | 53.85193 | 9.66581 | 8216 ft | 221 kts | 71° |
| 2026-04-23 19:15 | 53.85498 | 9.69131 | 8232 ft | 221 kts | 71° |
| 2026-04-23 19:15 | 53.85799 | 9.71641 | 8229 ft | 221 kts | 71° |
| 2026-04-23 19:16 | 53.86107 | 9.74201 | 8223 ft | 221 kts | 71° |
| 2026-04-23 19:16 | 53.86382 | 9.76507 | 8222 ft | 221 kts | 71° |
| 2026-04-23 19:16 | 53.86624 | 9.79143 | 8220 ft | 225 kts | 78° |
| 2026-04-23 19:17 | 53.86455 | 9.84491 | 8205 ft | 228 kts | 90° |
| 2026-04-23 19:17 | 53.86279 | 9.86842 | 7981 ft | 227 kts | 90° |
| 2026-04-23 19:17 | 53.86078 | 9.89525 | 7630 ft | 228 kts | 90° |
| 2026-04-23 19:17 | 53.85883 | 9.92191 | 7323 ft | 227 kts | 89° |
| 2026-04-23 19:18 | 53.85691 | 9.94833 | 7231 ft | 226 kts | 89° |
| 2026-04-23 19:18 | 53.85500 | 9.97511 | 7224 ft | 228 kts | 89° |
| 2026-04-23 19:18 | 53.85310 | 10.00183 | 7224 ft | 228 kts | 89° |
| 2026-04-23 19:18 | 53.85120 | 10.02851 | 7216 ft | 228 kts | 89° |
| 2026-04-23 19:19 | 53.84736 | 10.08182 | 7206 ft | 228 kts | 89° |
| 2026-04-23 19:19 | 53.84542 | 10.10843 | 7020 ft | 224 kts | 89° |
| 2026-04-23 19:20 | 53.84165 | 10.16073 | 6368 ft | 225 kts | 89° |
| 2026-04-23 19:20 | 53.84118 | 10.18688 | 6062 ft | 216 kts | 69° |
| 2026-04-23 19:20 | 53.84669 | 10.20921 | 5754 ft | 201 kts | 45° |
| 2026-04-23 19:20 | 53.85548 | 10.22729 | 5457 ft | 197 kts | 41° |
| 2026-04-23 19:21 | 53.86452 | 10.24483 | 5160 ft | 197 kts | 41° |
| 2026-04-23 19:21 | 53.88010 | 10.28325 | 4528 ft | 212 kts | 72° |
| 2026-04-23 19:21 | 53.87863 | 10.30841 | 4230 ft | 227 kts | 109° |
| 2026-04-23 19:22 | 53.86865 | 10.32950 | 3932 ft | 235 kts | 146° |
| 2026-04-23 19:22 | 53.85366 | 10.33835 | 3650 ft | 231 kts | 182° |
| 2026-04-23 19:22 | 53.82315 | 10.32661 | 3098 ft | 223 kts | 204° |
| 2026-04-23 19:23 | 53.80868 | 10.31838 | 2960 ft | 214 kts | 204° |
| 2026-04-23 19:23 | 53.79527 | 10.30865 | 2957 ft | 208 kts | 215° |
| 2026-04-23 19:23 | 53.78339 | 10.29562 | 2956 ft | 203 kts | 227° |
| 2026-04-23 19:24 | 53.76463 | 10.26154 | 2962 ft | 196 kts | 240° |
| 2026-04-23 19:24 | 53.75619 | 10.24310 | 3033 ft | 198 kts | 240° |
| 2026-04-23 19:24 | 53.73914 | 10.20752 | 2959 ft | 187 kts | 239° |
| 2026-04-23 19:25 | 53.72273 | 10.17460 | 2745 ft | 182 kts | 239° |
| 2026-04-23 19:25 | 53.70648 | 10.14202 | 2253 ft | 180 kts | 240° |
| 2026-04-23 19:26 | 53.69070 | 10.11037 | 1755 ft | 169 kts | 240° |
| 2026-04-23 19:26 | 53.68338 | 10.09570 | 1525 ft | 157 kts | 240° |
| 2026-04-23 19:27 | 53.66971 | 10.06795 | 1132 ft | 152 kts | 238° |
| 2026-04-23 19:27 | 53.65134 | 10.03106 | 550 ft | 132 kts | 238° |
| 2026-04-23 19:28 | 53.63971 | 10.00725 | 202 ft | 129 kts | 234° |
| 2026-04-23 19:28 | 53.63018 | 9.98779 | 62 ft | 51 kts | 230° |
| 2026-04-23 19:29 | 53.62857 | 9.98523 | 62 ft | 27 kts | 206° |
| 2026-04-23 19:29 | 53.62700 | 9.98508 | 62 ft | 5 kts | 110° |
| 2026-04-23 19:30 | 53.62745 | 9.98666 | 62 ft | 11 kts | 51° |
| 2026-04-23 19:30 | 53.62815 | 9.98804 | 62 ft | 19 kts | 49° |
| 2026-04-23 19:30 | 53.62986 | 9.99151 | 62 ft | 19 kts | 50° |
| 2026-04-23 19:31 | 53.63059 | 9.99312 | 62 ft | 15 kts | 53° |
| 2026-04-23 19:31 | 53.63121 | 9.99459 | 62 ft | 15 kts | 55° |
| 2026-04-23 19:31 | 53.63189 | 9.99603 | 62 ft | 15 kts | 47° |
| 2026-04-23 19:31 | 53.63215 | 9.99651 | 62 ft | 0 kts | 47° |
| 2026-04-23 19:32 | 53.63217 | 9.99654 | 62 ft | 1 kts | 47° |
| 2026-04-23 19:32 | 53.63227 | 9.99676 | 62 ft | 3 kts | 51° |
| 2026-04-23 19:32 | 53.63230 | 9.99743 | 62 ft | 11 kts | 117° |
| 2026-04-23 19:32 | 53.63153 | 9.99824 | 62 ft | 12 kts | 154° |
| 2026-04-23 19:33 | 53.63074 | 9.99893 | 62 ft | 13 kts | 152° |
| 2026-04-23 19:33 | 53.62991 | 9.99964 | 62 ft | 13 kts | 152° |
| 2026-04-23 19:33 | 53.62868 | 10.00058 | 62 ft | 8 kts | 165° |
| 2026-04-23 19:34 | 53.62818 | 10.00093 | 62 ft | 4 kts | 147° |
| 2026-04-23 19:34 | 53.62820 | 10.00145 | 62 ft | 5 kts | 64° |
| 2026-04-23 19:34 | 53.62841 | 10.00211 | 62 ft | 0 kts | 62° |